Time;durP1;ratioP1;P1;durP2;ratioP2;P2;SDS_P1;SDS_P2;PMS_P1;PMS_P2;Temp;Humidity;BMP_temperature;BMP_pressure;BME280_temperature;BME280_humidity;BME280_pressure;Samples;Min_cycle;Max_cycle;Signal;HPM_P1;HPM_P2
2024/03/14 00:02:57;;;;;;;118.50;73.20;;;;;;;9.62;100.00;100291.83;178202;1256;46096;-87
2024/03/14 00:06:58;;;;;;;126.90;74.30;;;;;;;9.56;100.00;100291.39;177845;1260;45974;-86
2024/03/14 00:11:00;;;;;;;67.20;48.50;;;;;;;9.55;100.00;100293.73;178617;1256;45980;-84
2024/03/14 00:15:02;;;;;;;67.90;38.30;;;;;;;9.50;100.00;100296.48;179322;1257;46050;-85
2024/03/14 00:19:04;;;;;;;61.40;41.00;;;;;;;9.48;100.00;100292.17;179160;1256;59463;-85
2024/03/14 00:23:06;;;;;;;65.00;42.50;;;;;;;9.45;100.00;100284.61;178453;1256;45968;-83
2024/03/14 00:27:07;;;;;;;116.90;64.90;;;;;;;9.31;100.00;100287.14;178917;1256;46111;-86
2024/03/14 00:31:11;;;;;;;69.00;45.40;;;;;;;9.19;100.00;100283.42;179080;1256;44630;-86
2024/03/14 00:35:13;;;;;;;71.30;42.70;;;;;;;9.18;100.00;100287.40;178365;1259;45886;-84
2024/03/14 00:39:16;;;;;;;63.70;42.40;;;;;;;9.16;100.00;100282.77;177819;1256;57342;-84
2024/03/14 00:43:18;;;;;;;62.50;43.90;;;;;;;9.17;100.00;100277.76;178674;1259;45968;-86
2024/03/14 00:47:21;;;;;;;72.80;51.20;;;;;;;9.21;100.00;100271.41;177985;1256;46054;-85
2024/03/14 00:51:22;;;;;;;66.50;46.70;;;;;;;9.28;100.00;100269.31;178712;1256;45134;-84
2024/03/14 00:55:24;;;;;;;74.80;48.10;;;;;;;9.31;100.00;100266.20;178553;1258;46034;-84
2024/03/14 00:59:27;;;;;;;123.00;66.70;;;;;;;9.34;100.00;100265.12;179302;1257;57233;-85
2024/03/14 01:03:32;;;;;;;84.10;52.10;;;;;;;9.29;100.00;100259.16;177995;1256;46109;-84
2024/03/14 01:07:34;;;;;;;94.40;58.20;;;;;;;9.17;100.00;100253.28;179209;1256;44846;-85
2024/03/14 01:11:36;;;;;;;121.90;68.70;;;;;;;9.19;100.00;100250.48;178515;1256;46009;-86
2024/03/14 01:15:39;;;;;;;119.10;68.10;;;;;;;9.18;100.00;100251.10;178609;1256;46410;-85
2024/03/14 01:19:40;;;;;;;83.00;53.50;;;;;;;9.17;100.00;100251.36;178197;1257;58206;-85
2024/03/14 01:23:42;;;;;;;85.00;53.00;;;;;;;9.22;100.00;100246.52;178217;1256;46103;-84
2024/03/14 01:27:45;;;;;;;90.80;51.00;;;;;;;9.26;100.00;100245.90;177803;1256;46279;-85
2024/03/14 01:31:47;;;;;;;63.60;43.30;;;;;;;9.24;100.00;100246.03;178845;1256;46054;-85
2024/03/14 01:35:49;;;;;;;63.00;44.30;;;;;;;9.24;100.00;100243.90;178261;1259;46220;-85
2024/03/14 01:39:51;;;;;;;58.60;41.20;;;;;;;9.32;100.00;100242.09;178258;1257;58771;-84
2024/03/14 01:44:00;;;;;;;64.20;42.30;;;;;;;9.42;100.00;100242.91;178849;1256;46108;-84
2024/03/14 01:48:02;;;;;;;56.90;39.90;;;;;;;9.51;100.00;100244.30;178492;1257;45993;-86
2024/03/14 01:52:04;;;;;;;60.40;38.00;;;;;;;9.56;100.00;100244.80;178267;1258;45971;-84
2024/03/14 01:56:06;;;;;;;58.10;37.50;;;;;;;9.66;100.00;100232.94;178853;1256;46139;-87
2024/03/14 02:00:11;;;;;;;50.10;31.30;;;;;;;9.67;100.00;100232.52;178767;1256;59532;-85
2024/03/14 02:04:20;;;;;;;40.30;28.90;;;;;;;9.61;100.00;100232.98;177932;1257;46161;-85
2024/03/14 02:08:22;;;;;;;38.00;29.60;;;;;;;9.55;100.00;100236.05;178205;1256;45994;-86
2024/03/14 02:12:24;;;;;;;43.30;28.80;;;;;;;9.48;100.00;100235.90;178956;1257;46000;-86
2024/03/14 02:16:25;;;;;;;42.50;28.20;;;;;;;9.45;100.00;100236.67;179592;1256;44826;-86
2024/03/14 02:20:27;;;;;;;37.60;26.80;;;;;;;9.45;100.00;100236.14;178557;1257;59530;-87
2024/03/14 02:24:29;;;;;;;33.20;24.70;;;;;;;9.42;100.00;100233.19;178948;1258;46167;-83
2024/03/14 02:28:31;;;;;;;37.90;23.50;;;;;;;9.44;100.00;100231.73;178792;1256;45979;-85
2024/03/14 02:32:33;;;;;;;35.00;24.80;;;;;;;9.51;100.00;100230.20;179084;1256;46092;-86
2024/03/14 02:36:35;;;;;;;35.60;22.60;;;;;;;9.57;100.00;100232.74;179039;1256;46423;-84
2024/03/14 02:40:37;;;;;;;28.60;21.70;;;;;;;9.53;100.00;100232.83;178384;1257;58233;-86
2024/03/14 02:44:39;;;;;;;30.10;22.50;;;;;;;9.40;100.00;100234.17;179737;1257;44643;-85
2024/03/14 02:48:41;;;;;;;30.90;23.10;;;;;;;9.26;100.00;100238.25;178517;1257;46052;-86
2024/03/14 02:52:43;;;;;;;32.80;23.10;;;;;;;9.12;100.00;100239.58;178232;1256;46097;-83
2024/03/14 02:56:52;;;;;;;36.90;22.90;;;;;;;9.12;100.00;100235.10;178375;1257;46106;-84
2024/03/14 03:00:54;;;;;;;30.50;21.10;;;;;;;9.17;100.00;100232.24;179193;1256;58156;-85
2024/03/14 03:04:56;;;;;;;25.70;19.40;;;;;;;9.15;100.00;100236.13;178782;1256;45987;-85
2024/03/14 03:08:58;;;;;;;28.70;19.30;;;;;;;9.09;100.00;100238.17;177918;1260;46102;-85
2024/03/14 03:13:00;;;;;;;26.60;19.20;;;;;;;9.12;100.00;100234.24;178856;1257;46095;-84
2024/03/14 03:17:02;;;;;;;27.00;18.10;;;;;;;9.17;100.00;100230.01;178692;1256;46065;-87
2024/03/14 03:21:05;;;;;;;33.10;22.20;;;;;;;9.23;100.00;100227.21;178284;1256;59383;-86
2024/03/14 03:25:09;;;;;;;27.40;18.80;;;;;;;9.29;100.00;100224.79;178933;1256;46142;-86
2024/03/14 03:29:13;;;;;;;27.70;19.30;;;;;;;9.33;100.00;100224.80;178467;1256;45865;-87
2024/03/14 03:33:20;;;;;;;35.90;18.50;;;;;;;9.36;100.00;100222.83;177959;1256;44268;-86
2024/03/14 03:37:21;;;;;;;29.20;18.00;;;;;;;9.41;100.00;100220.52;178914;1256;45904;-85
2024/03/14 03:41:29;;;;;;;33.40;20.40;;;;;;;9.43;100.00;100218.55;178289;1256;58019;-85
2024/03/14 03:45:31;;;;;;;27.00;19.50;;;;;;;9.46;100.00;100222.75;179302;1257;46020;-86
2024/03/14 03:49:34;;;;;;;24.70;17.40;;;;;;;9.43;100.00;100223.33;178693;1257;45978;-87
2024/03/14 03:53:35;;;;;;;24.20;16.20;;;;;;;9.40;100.00;100225.00;178125;1257;46033;-87
2024/03/14 03:57:38;;;;;;;21.80;18.00;;;;;;;9.34;100.00;100229.59;178238;1258;46096;-85
2024/03/14 04:01:40;;;;;;;27.30;20.00;;;;;;;9.28;100.00;100230.84;178472;1257;57867;-87
2024/03/14 04:05:42;;;;;;;26.40;18.80;;;;;;;9.25;100.00;100230.60;179047;1258;44227;-87
2024/03/14 04:09:47;;;;;;;28.60;20.90;;;;;;;9.24;100.00;100230.63;178932;1257;46026;-85
2024/03/14 04:13:49;;;;;;;31.20;23.00;;;;;;;9.24;100.00;100235.11;179404;1259;45936;-87
2024/03/14 04:17:51;;;;;;;33.50;25.10;;;;;;;9.21;100.00;100233.21;180211;1257;46028;-86
2024/03/14 04:21:58;;;;;;;33.40;23.40;;;;;;;9.18;100.00;100237.87;178832;1256;58224;-85
2024/03/14 04:26:02;;;;;;;33.60;23.00;;;;;;;9.13;100.00;100239.80;178801;1256;44275;-87
2024/03/14 04:30:06;;;;;;;33.70;20.70;;;;;;;9.10;100.00;100242.34;178791;1257;44096;-85
2024/03/14 04:34:09;;;;;;;36.40;18.80;;;;;;;8.95;100.00;100242.95;178428;1258;46115;-87
2024/03/14 04:38:10;;;;;;;22.90;17.90;;;;;;;8.60;100.00;100240.42;180309;1256;46023;-88
2024/03/14 04:42:12;;;;;;;30.00;19.80;;;;;;;8.30;100.00;100240.42;178441;1256;57823;-86
2024/03/14 04:46:14;;;;;;;30.30;20.10;;;;;;;8.09;100.00;100245.99;178745;1257;45991;-87
2024/03/14 04:50:18;;;;;;;29.70;19.10;;;;;;;7.92;100.00;100245.77;178031;1257;46024;-87
2024/03/14 04:54:20;;;;;;;25.50;18.70;;;;;;;7.75;100.00;100252.95;178792;1256;45389;-85
2024/03/14 04:58:22;;;;;;;32.90;22.30;;;;;;;7.60;100.00;100255.58;178871;1258;46061;-87
2024/03/14 05:02:24;;;;;;;34.60;26.00;;;;;;;7.53;100.00;100254.84;179099;1257;58426;-88
2024/03/14 05:06:26;;;;;;;28.40;21.00;;;;;;;7.51;100.00;100259.05;179270;1256;46157;-85
2024/03/14 05:10:31;;;;;;;31.40;21.60;;;;;;;7.47;100.00;100260.23;178234;1260;46215;-87
2024/03/14 05:14:36;;;;;;;40.70;22.00;;;;;;;7.33;100.00;100262.08;178590;1258;46097;-85
2024/03/14 05:18:37;;;;;;;35.10;24.40;;;;;;;7.14;100.00;100264.21;178317;1259;44767;-85
2024/03/14 05:22:39;;;;;;;34.50;22.80;;;;;;;6.99;100.00;100261.19;179208;1257;59648;-84
2024/03/14 05:26:42;;;;;;;46.00;26.40;;;;;;;6.77;100.00;100259.42;178637;1256;46103;-86
2024/03/14 05:30:43;;;;;;;32.40;22.30;;;;;;;6.66;100.00;100261.53;177959;1257;46030;-85
2024/03/14 05:34:45;;;;;;;31.50;22.50;;;;;;;6.71;100.00;100259.33;178302;1261;46144;-85
2024/03/14 05:38:47;;;;;;;35.00;22.70;;;;;;;6.60;100.00;100259.27;178228;1256;44186;-83
2024/03/14 05:42:52;;;;;;;40.20;21.80;;;;;;;6.45;100.00;100254.98;178705;1256;60093;-83
2024/03/14 05:46:55;;;;;;;45.20;29.80;;;;;;;6.35;100.00;100257.20;180422;1256;45968;-84
2024/03/14 05:50:57;;;;;;;33.10;19.80;;;;;;;6.31;100.00;100259.95;180466;1257;43936;-85
2024/03/14 05:54:58;;;;;;;33.00;21.60;;;;;;;6.39;100.00;100262.98;178750;1256;46001;-84
2024/03/14 05:59:02;;;;;;;29.50;21.60;;;;;;;6.66;100.00;100264.02;178043;1259;46000;-84
2024/03/14 06:03:04;;;;;;;29.40;21.90;;;;;;;6.97;100.00;100267.42;178975;1260;59423;-83
2024/03/14 06:07:06;;;;;;;25.30;20.20;;;;;;;7.11;100.00;100266.16;178517;1259;46035;-82
2024/03/14 06:11:08;;;;;;;34.90;23.40;;;;;;;7.20;100.00;100265.42;179029;1256;44814;-83
2024/03/14 06:15:12;;;;;;;30.30;24.50;;;;;;;7.31;100.00;100263.06;178068;1256;46263;-85
2024/03/14 06:19:13;;;;;;;31.10;20.70;;;;;;;7.46;100.00;100262.91;177972;1257;45874;-84
2024/03/14 06:23:15;;;;;;;25.70;20.10;;;;;;;7.62;100.00;100265.15;178859;1256;57908;-83
2024/03/14 06:27:17;;;;;;;21.90;15.50;;;;;;;7.81;100.00;100267.36;179175;1256;46079;-85
2024/03/14 06:31:19;;;;;;;20.40;16.30;;;;;;;8.08;100.00;100271.67;178530;1256;46029;-85
2024/03/14 06:35:21;;;;;;;21.40;14.10;;;;;;;8.36;100.00;100267.41;178644;1260;46067;-85
2024/03/14 06:39:25;;;;;;;22.60;17.20;;;;;;;8.46;100.00;100264.86;178054;1258;46002;-85
2024/03/14 06:43:27;;;;;;;28.00;19.60;;;;;;;8.61;100.00;100268.92;177842;1259;57915;-85
2024/03/14 06:47:29;;;;;;;20.50;17.20;;;;;;;8.92;100.00;100266.84;178213;1257;44947;-84
2024/03/14 06:51:31;;;;;;;23.10;15.90;;;;;;;9.32;100.00;100267.58;178074;1256;44480;-84
2024/03/14 06:55:33;;;;;;;18.40;14.10;;;;;;;9.66;100.00;100264.44;178443;1257;45990;-85
2024/03/14 06:59:37;;;;;;;19.00;14.60;;;;;;;10.04;100.00;100265.36;178362;1256;46140;-84
2024/03/14 07:03:39;;;;;;;22.20;14.50;;;;;;;10.44;100.00;100267.11;178518;1257;58218;-85
2024/03/14 07:07:42;;;;;;;13.10;11.20;;;;;;;10.78;100.00;100267.41;177736;1256;46174;-85
2024/03/14 07:11:45;;;;;;;15.30;10.90;;;;;;;11.03;100.00;100268.34;178482;1259;46467;-83
2024/03/14 07:15:47;;;;;;;17.00;11.60;;;;;;;11.21;99.89;100266.27;179458;1257;45976;-85
2024/03/14 07:19:49;;;;;;;18.20;13.00;;;;;;;11.35;99.54;100267.11;179358;1261;46091;-84
2024/03/14 07:23:53;;;;;;;16.60;12.70;;;;;;;11.51;96.47;100264.98;179397;1256;59256;-82
2024/03/14 07:27:55;;;;;;;17.40;11.40;;;;;;;11.73;95.74;100273.94;178682;1256;46012;-84
2024/03/14 07:31:57;;;;;;;14.60;11.40;;;;;;;11.84;94.39;100272.87;178027;1256;46032;-83
2024/03/14 07:35:59;;;;;;;19.90;14.50;;;;;;;11.95;96.44;100273.81;177874;1256;46198;-84
2024/03/14 07:40:02;;;;;;;23.00;15.60;;;;;;;12.07;95.21;100273.55;178524;1256;46079;-85
2024/03/14 07:44:05;;;;;;;28.70;17.80;;;;;;;12.20;93.22;100276.29;178738;1257;57682;-83
2024/03/14 07:48:27;;;;;;;28.00;18.80;;;;;;;12.27;93.16;100276.36;178580;1260;46040;-84
2024/03/14 07:52:29;;;;;;;27.50;19.40;;;;;;;12.43;92.68;100281.17;177938;1256;46087;-83
2024/03/14 07:56:32;;;;;;;33.80;22.80;;;;;;;12.54;92.61;100278.45;178542;1259;46037;-83
2024/03/14 08:00:34;;;;;;;27.90;19.40;;;;;;;12.75;90.00;100274.79;178874;1256;45964;-83
2024/03/14 08:04:41;;;;;;;25.50;21.60;;;;;;;12.87;88.32;100281.33;178792;1259;58444;-84
2024/03/14 08:08:43;;;;;;;28.20;20.90;;;;;;;13.01;87.71;100283.83;178462;1259;46477;-85
2024/03/14 08:12:45;;;;;;;28.30;19.70;;;;;;;13.17;85.82;100281.68;178750;1260;46661;-85
2024/03/14 08:16:47;;;;;;;35.40;24.20;;;;;;;13.28;85.72;100281.15;179461;1256;46105;-85
2024/03/14 08:20:50;;;;;;;27.70;20.10;;;;;;;13.55;84.33;100283.30;178106;1257;46081;-85
2024/03/14 08:24:52;;;;;;;26.30;21.10;;;;;;;13.67;84.62;100280.96;179957;1256;58060;-85
2024/03/14 08:28:54;;;;;;;25.20;19.20;;;;;;;13.78;84.71;100283.67;179047;1260;46039;-84
2024/03/14 08:32:57;;;;;;;29.50;21.80;;;;;;;13.91;84.90;100283.70;178528;1256;45988;-84
2024/03/14 08:37:00;;;;;;;24.10;20.30;;;;;;;13.99;83.56;100282.41;177534;1259;45994;-85
2024/03/14 08:41:03;;;;;;;24.70;17.60;;;;;;;14.07;80.48;100285.88;178987;1260;46588;-84
2024/03/14 08:45:05;;;;;;;23.50;17.20;;;;;;;14.00;78.03;100292.63;178594;1258;58368;-84
2024/03/14 08:49:07;;;;;;;23.20;16.50;;;;;;;13.99;79.17;100295.98;178258;1259;46094;-83
2024/03/14 08:53:09;;;;;;;23.60;17.10;;;;;;;13.96;79.20;100302.33;178186;1259;46079;-83
2024/03/14 08:57:12;;;;;;;29.80;20.10;;;;;;;13.97;78.42;100300.41;177784;1258;46152;-82
2024/03/14 09:01:14;;;;;;;23.20;18.30;;;;;;;13.95;77.54;100299.85;178107;1262;46002;-81
2024/03/14 09:05:17;;;;;;;29.40;21.60;;;;;;;13.95;78.61;100296.17;178723;1260;58098;-83
2024/03/14 09:09:27;;;;;;;23.90;18.10;;;;;;;13.84;77.10;100297.49;178096;1257;45982;-84
2024/03/14 09:13:31;;;;;;;27.90;21.20;;;;;;;13.78;77.04;100296.08;178203;1260;46023;-82
2024/03/14 09:17:33;;;;;;;32.50;23.90;;;;;;;13.76;77.24;100300.42;179177;1258;46124;-83
2024/03/14 09:21:36;;;;;;;27.40;20.00;;;;;;;13.75;77.46;100301.27;178028;1260;45975;-83
2024/03/14 09:25:38;;;;;;;32.60;21.90;;;;;;;13.70;77.66;100301.00;178742;1256;59380;-84
2024/03/14 09:29:40;;;;;;;35.00;23.20;;;;;;;13.65;79.40;100300.07;178939;1259;47071;-85
2024/03/14 09:33:42;;;;;;;33.50;20.00;;;;;;;13.69;77.81;100301.04;179571;1258;46575;-85
2024/03/14 09:37:44;;;;;;;28.60;20.40;;;;;;;13.62;79.21;100298.77;178438;1256;46121;-82
2024/03/14 09:41:46;;;;;;;26.00;19.30;;;;;;;13.63;78.53;100297.74;179605;1257;46005;-85
2024/03/14 09:45:54;;;;;;;22.50;19.80;;;;;;;13.67;78.58;100298.06;179089;1257;60130;-83
2024/03/14 09:49:57;;;;;;;28.50;19.60;;;;;;;13.75;80.09;100294.46;178629;1256;46044;-83
2024/03/14 09:54:00;;;;;;;29.50;22.80;;;;;;;13.87;80.28;100285.61;178915;1256;46127;-84
2024/03/14 09:58:04;;;;;;;39.60;23.10;;;;;;;14.03;78.91;100282.69;178858;1260;46208;-85
2024/03/14 10:02:21;;;;;;;41.10;21.60;;;;;;;14.17;78.43;100281.04;178819;1256;44199;-85
2024/03/14 10:06:23;;;;;;;28.20;20.50;;;;;;;14.32;77.56;100275.12;178674;1259;58051;-85
2024/03/14 10:10:31;;;;;;;28.00;20.70;;;;;;;14.43;75.58;100276.67;178255;1260;44284;-85
2024/03/14 10:14:34;;;;;;;27.60;19.80;;;;;;;14.46;75.46;100276.10;178778;1260;45852;-86
2024/03/14 10:18:38;;;;;;;27.30;20.70;;;;;;;14.45;75.21;100272.22;178736;1259;46114;-85
2024/03/14 10:22:41;;;;;;;27.90;20.20;;;;;;;14.57;74.48;100268.75;178034;1258;46260;-84
2024/03/14 10:26:48;;;;;;;26.30;18.90;;;;;;;14.67;73.40;100271.01;178707;1257;59568;-85
2024/03/14 10:30:52;;;;;;;26.60;17.70;;;;;;;14.79;75.23;100271.59;177926;1260;46087;-83
2024/03/14 10:34:54;;;;;;;31.60;20.40;;;;;;;14.96;73.48;100267.98;178384;1260;46127;-86
2024/03/14 10:38:59;;;;;;;18.00;14.90;;;;;;;15.13;70.36;100267.63;178376;1257;46124;-84
2024/03/14 10:43:03;;;;;;;26.00;18.20;;;;;;;15.32;70.39;100261.79;178032;1257;44805;-84
2024/03/14 10:47:07;;;;;;;21.00;15.10;;;;;;;15.42;72.66;100260.65;178732;1257;59583;-84
2024/03/14 10:51:09;;;;;;;12.90;9.70;;;;;;;15.49;67.76;100257.77;178504;1260;46114;-83
2024/03/14 10:55:15;;;;;;;15.90;11.60;;;;;;;15.43;64.53;100258.73;178396;1258;46109;-85
2024/03/14 10:59:22;;;;;;;16.50;14.10;;;;;;;15.39;64.89;100258.11;178292;1260;46100;-83
2024/03/14 11:03:24;;;;;;;18.00;12.80;;;;;;;15.36;66.96;100252.84;177884;1258;188856;-85
2024/03/14 11:07:28;;;;;;;16.90;12.50;;;;;;;15.26;66.48;100252.81;178709;1260;58104;-84
2024/03/14 11:11:34;;;;;;;16.50;13.80;;;;;;;15.26;66.83;100250.49;178097;1260;46102;-83
2024/03/14 11:15:40;;;;;;;14.40;10.60;;;;;;;15.35;66.50;100254.27;179347;1257;46095;-84
2024/03/14 11:19:51;;;;;;;14.10;10.30;;;;;;;15.38;65.17;100253.35;178469;1257;45918;-84
2024/03/14 11:23:54;;;;;;;12.60;10.70;;;;;;;15.38;67.55;100248.36;178678;1260;46653;-84
2024/03/14 11:27:57;;;;;;;18.60;12.30;;;;;;;15.39;67.95;100241.70;178827;1260;59466;-84
2024/03/14 11:32:18;;;;;;;16.90;11.10;;;;;;;15.39;67.66;100239.13;179084;1260;45967;-85
2024/03/14 11:36:22;;;;;;;26.30;11.70;;;;;;;15.45;65.48;100236.07;179299;1257;44407;-84
2024/03/14 11:40:30;;;;;;;12.70;10.40;;;;;;;15.54;65.07;100232.23;178448;1257;44359;-85
2024/03/14 11:44:31;;;;;;;14.30;10.50;;;;;;;15.49;63.98;100229.02;178337;1261;46016;-84
2024/03/14 11:48:33;;;;;;;14.50;11.10;;;;;;;15.51;64.49;100228.42;178320;1260;59587;-85
2024/03/14 11:52:36;;;;;;;11.70;9.70;;;;;;;15.48;63.37;100225.70;178367;1257;46002;-84
2024/03/14 11:56:42;;;;;;;19.00;10.60;;;;;;;15.44;64.23;100224.85;178674;1260;46029;-84
2024/03/14 12:00:47;;;;;;;16.00;12.50;;;;;;;15.37;64.06;100223.94;178215;1260;46404;-84
2024/03/14 12:04:49;;;;;;;23.40;14.10;;;;;;;15.42;65.26;100219.54;178258;1257;46146;-82
2024/03/14 12:08:52;;;;;;;18.90;11.50;;;;;;;15.39;66.20;100211.73;178545;1260;59388;-83
2024/03/14 12:12:56;;;;;;;19.10;13.10;;;;;;;15.37;64.77;100207.39;178179;1257;46096;-87
2024/03/14 12:17:00;;;;;;;16.90;11.80;;;;;;;15.32;62.92;100208.97;178764;1257;46121;-84
2024/03/14 12:21:02;;;;;;;15.80;12.20;;;;;;;15.42;62.45;100199.94;178724;1260;46150;-82
2024/03/14 12:25:05;;;;;;;15.00;11.90;;;;;;;15.54;63.85;100202.58;178501;1256;45962;-84
2024/03/14 12:29:07;;;;;;;14.30;11.40;;;;;;;15.62;64.95;100194.46;178890;1257;59184;-84
2024/03/14 12:33:11;;;;;;;18.60;12.60;;;;;;;15.57;62.93;100193.70;178529;1257;46161;-84
2024/03/14 12:37:13;;;;;;;19.90;13.80;;;;;;;15.52;64.93;100191.31;178173;1261;46316;-82
2024/03/14 12:41:15;;;;;;;17.60;12.10;;;;;;;15.42;65.54;100186.84;178564;1256;46135;-82
2024/03/14 12:45:17;;;;;;;16.70;11.90;;;;;;;15.30;66.27;100182.52;178872;1257;46092;-84
2024/03/14 12:49:21;;;;;;;19.70;13.20;;;;;;;15.28;66.51;100183.11;179115;1257;57828;-83
2024/03/14 12:53:24;;;;;;;21.20;15.60;;;;;;;15.19;67.84;100180.68;179134;1257;45864;-85
2024/03/14 12:57:25;;;;;;;19.20;14.40;;;;;;;15.08;67.29;100181.73;178388;1259;46013;-84
2024/03/14 13:01:33;;;;;;;23.50;16.10;;;;;;;15.05;67.56;100183.89;179801;1257;46041;-84
2024/03/14 13:05:35;;;;;;;43.30;13.60;;;;;;;14.96;68.71;100179.34;178444;1257;46004;-84
2024/03/14 13:09:37;;;;;;;17.60;10.70;;;;;;;14.85;67.29;100173.58;178273;1257;60131;-83
2024/03/14 13:13:40;;;;;;;16.00;11.70;;;;;;;14.76;68.40;100174.27;178263;1260;45891;-85
2024/03/14 13:17:49;;;;;;;17.70;12.80;;;;;;;14.66;70.90;100169.36;177954;1257;46013;-85
2024/03/14 13:21:52;;;;;;;14.60;12.50;;;;;;;14.52;71.57;100171.14;178365;1257;46015;-85
2024/03/14 13:25:56;;;;;;;16.50;11.20;;;;;;;14.41;74.96;100167.13;178165;1260;44103;-84
2024/03/14 13:30:00;;;;;;;16.40;11.90;;;;;;;14.33;76.06;100166.88;178464;1257;58335;-83
2024/03/14 13:34:03;;;;;;;19.70;13.20;;;;;;;14.24;75.03;100167.99;177769;1257;46028;-82
2024/03/14 13:38:06;;;;;;;33.90;15.70;;;;;;;14.13;75.05;100161.34;178206;1257;46159;-85
2024/03/14 13:42:08;;;;;;;22.90;12.70;;;;;;;14.11;76.29;100158.67;178870;1256;44904;-83
2024/03/14 13:46:11;;;;;;;20.20;11.70;;;;;;;14.06;76.24;100159.75;178111;1261;46108;-86
2024/03/14 13:50:15;;;;;;;17.80;11.60;;;;;;;14.07;75.71;100158.71;178042;1256;57951;-84
2024/03/14 13:54:18;;;;;;;16.90;13.10;;;;;;;14.10;78.88;100156.80;177568;1257;46077;-86
2024/03/14 13:58:25;;;;;;;16.70;14.10;;;;;;;14.12;79.06;100161.10;178315;1257;44606;-82
2024/03/14 14:02:27;;;;;;;20.80;12.90;;;;;;;14.18;78.81;100163.93;178646;1256;46044;-82
2024/03/14 14:06:29;;;;;;;16.80;12.60;;;;;;;14.24;80.94;100161.77;179594;1257;46010;-82
2024/03/14 14:10:32;;;;;;;16.60;12.50;;;;;;;14.24;80.36;100158.90;179560;1257;57246;-82
2024/03/14 14:14:35;;;;;;;18.10;10.40;;;;;;;14.22;79.31;100158.74;178915;1257;45923;-82
2024/03/14 14:18:40;;;;;;;15.70;11.50;;;;;;;14.17;78.18;100158.53;178602;1257;46150;-80
2024/03/14 14:22:43;;;;;;;17.10;11.90;;;;;;;14.20;81.99;100153.02;178365;1256;46031;-80
2024/03/14 14:26:47;;;;;;;15.70;10.90;;;;;;;14.23;80.26;100151.64;178572;1256;46104;-80
2024/03/14 14:30:49;;;;;;;12.20;10.40;;;;;;;14.29;79.17;100149.84;177872;1257;59904;-81
2024/03/14 14:34:51;;;;;;;14.80;11.40;;;;;;;14.40;83.98;100147.87;178592;1257;46083;-82
2024/03/14 14:38:53;;;;;;;20.00;11.90;;;;;;;14.51;82.91;100144.13;178403;1257;46073;-82
2024/03/14 14:42:56;;;;;;;12.20;10.00;;;;;;;14.61;83.60;100142.91;179196;1257;46016;-82
2024/03/14 14:46:58;;;;;;;13.70;10.40;;;;;;;14.74;82.04;100141.46;179720;1257;44772;-81
2024/03/14 14:51:00;;;;;;;12.90;10.00;;;;;;;14.82;79.54;100142.13;178377;1260;59134;-82
2024/03/14 14:55:13;;;;;;;16.20;10.50;;;;;;;14.86;80.00;100140.45;178929;1256;46072;-82
2024/03/14 14:59:15;;;;;;;13.90;10.20;;;;;;;14.90;78.32;100134.77;178569;1256;46134;-82
2024/03/14 15:03:17;;;;;;;17.20;11.80;;;;;;;14.93;79.00;100132.02;178987;1257;46105;-82
2024/03/14 15:07:20;;;;;;;14.90;11.30;;;;;;;14.95;78.33;100131.63;178183;1257;45911;-82
2024/03/14 15:11:23;;;;;;;12.80;10.10;;;;;;;14.87;78.24;100129.95;178630;1257;57894;-82
2024/03/14 15:15:26;;;;;;;16.00;11.70;;;;;;;14.86;79.37;100124.22;178216;1256;46137;-82
2024/03/14 15:19:37;;;;;;;18.60;12.80;;;;;;;14.80;82.12;100127.98;179036;1256;46006;-82
2024/03/14 15:23:41;;;;;;;16.70;12.10;;;;;;;14.76;83.64;100131.11;178055;1256;46092;-82
2024/03/14 15:27:47;;;;;;;17.00;12.10;;;;;;;14.72;84.28;100127.19;180330;1257;44364;-83
2024/03/14 15:31:50;;;;;;;10.70;7.90;;;;;;;14.57;86.15;100127.02;178948;1256;59857;-83
2024/03/14 15:35:52;;;;;;;8.20;6.10;;;;;;;14.32;88.58;100128.87;179476;1256;44181;-85
2024/03/14 15:39:54;;;;;;;7.10;6.30;;;;;;;14.03;92.00;100133.48;178404;1257;45966;-84
2024/03/14 15:43:56;;;;;;;11.60;9.10;;;;;;;13.82;93.84;100129.41;178432;1256;46409;-88
2024/03/14 15:47:57;;;;;;;21.80;17.20;;;;;;;13.73;93.87;100128.04;177959;1257;46049;-86
2024/03/14 15:52:01;;;;;;;18.10;14.40;;;;;;;13.71;93.94;100126.61;178201;1256;58174;-86
2024/03/14 15:56:05;;;;;;;68.90;41.30;;;;;;;13.75;94.16;100125.15;179271;1257;44339;-85
2024/03/14 16:00:08;;;;;;;54.40;35.00;;;;;;;13.73;96.82;100125.14;179793;1256;46059;-84
2024/03/14 16:04:11;;;;;;;42.40;28.30;;;;;;;13.65;98.95;100123.24;179178;1256;44567;-82
2024/03/14 16:08:13;;;;;;;36.20;29.30;;;;;;;13.63;99.30;100125.09;178505;1256;46182;-86
2024/03/14 16:12:27;;;;;;;66.30;36.60;;;;;;;13.59;98.64;100125.98;177798;1256;58190;-86
2024/03/14 16:16:29;;;;;;;20.50;14.70;;;;;;;13.50;98.74;100120.48;178040;1259;46098;-86
2024/03/14 16:20:31;;;;;;;15.60;10.80;;;;;;;13.39;99.21;100120.44;178576;1256;46053;-84
2024/03/14 16:24:38;;;;;;;17.90;15.40;;;;;;;13.28;99.08;100119.51;178371;1257;46027;-87
2024/03/14 16:28:47;;;;;;;32.30;16.60;;;;;;;13.21;99.76;100117.68;178028;1256;45994;-84
2024/03/14 16:32:49;;;;;;;31.50;17.90;;;;;;;13.08;100.00;100125.84;178533;1257;58330;-86
2024/03/14 16:36:51;;;;;;;49.60;23.40;;;;;;;12.93;100.00;100123.63;179211;1257;45946;-86
2024/03/14 16:40:52;;;;;;;90.40;43.50;;;;;;;12.81;100.00;100124.84;178625;1256;46140;-85
2024/03/14 16:44:54;;;;;;;173.70;84.30;;;;;;;12.67;100.00;100122.66;178034;1257;44437;-87
2024/03/14 16:48:56;;;;;;;255.50;134.90;;;;;;;12.54;100.00;100119.64;178947;1256;45149;-87
2024/03/14 16:52:59;;;;;;;134.50;69.00;;;;;;;12.42;100.00;100117.82;178096;1257;57848;-86
2024/03/14 16:57:00;;;;;;;54.20;30.70;;;;;;;12.40;100.00;100117.73;178608;1257;46134;-85
2024/03/14 17:01:02;;;;;;;135.60;82.30;;;;;;;12.33;100.00;100119.73;179242;1256;46195;-86
2024/03/14 17:05:05;;;;;;;223.00;127.10;;;;;;;12.30;100.00;100118.77;178580;1256;46099;-85
2024/03/14 17:09:07;;;;;;;169.80;105.60;;;;;;;12.24;100.00;100120.61;179004;1257;44168;-84
2024/03/14 17:13:09;;;;;;;93.80;56.60;;;;;;;12.18;100.00;100116.71;178195;1256;57875;-84
2024/03/14 17:17:12;;;;;;;195.50;115.70;;;;;;;12.19;100.00;100115.36;177742;1256;45956;-85
2024/03/14 17:21:20;;;;;;;220.10;140.80;;;;;;;12.15;100.00;100111.77;178216;1257;46121;-84
2024/03/14 17:25:22;;;;;;;106.80;66.30;;;;;;;12.15;100.00;100111.94;177847;1257;46112;-86
2024/03/14 17:29:26;;;;;;;35.40;24.90;;;;;;;12.19;100.00;100113.40;178206;1256;46013;-86
2024/03/14 17:33:28;;;;;;;34.00;22.10;;;;;;;12.27;100.00;100114.80;179392;1257;58196;-85
2024/03/14 17:37:31;;;;;;;32.70;18.90;;;;;;;12.35;100.00;100115.12;178748;1257;46005;-85
2024/03/14 17:41:36;;;;;;;40.50;22.80;;;;;;;12.39;100.00;100114.60;178841;1256;45597;-86
2024/03/14 17:45:38;;;;;;;66.70;36.90;;;;;;;12.41;100.00;100119.52;178515;1256;46124;-85
2024/03/14 17:49:40;;;;;;;204.50;124.60;;;;;;;12.27;100.00;100117.99;178007;1258;45980;-85
2024/03/14 17:53:41;;;;;;;330.20;161.90;;;;;;;12.02;100.00;100118.77;178671;1256;58104;-86
2024/03/14 17:57:46;;;;;;;142.30;74.10;;;;;;;11.84;100.00;100116.83;179142;1256;46076;-85
2024/03/14 18:01:49;;;;;;;569.10;422.70;;;;;;;11.78;100.00;100115.98;177963;1256;46026;-86
2024/03/14 18:05:51;;;;;;;467.50;299.20;;;;;;;11.64;100.00;100120.55;177763;1257;46193;-83
2024/03/14 18:09:54;;;;;;;224.20;140.70;;;;;;;11.61;100.00;100121.39;178702;1258;46097;-85